Disclaimer

Please do not use the information listed here in-flight or in-navigation, as they are not provided to us by the airports but are provided by volunteers, so they might be outdated.

Search


Regions


Airport information page

Radio informations:
Tower (TWR) - 119.3 MHz

Airport informations:
Latitude: 63° 03' 02.34" N
Longitude: 021° 45' 43.83" E
Elevation: 19 feet - 6 meters
Operating hours: N/A
Operating agency: Civil government, landing fees and diplomatic clearance may be required
Timezone: UTC+2(+3DT) - Last Sunday in March to last Sunday in October
Fuel: Jet A1, without icing nhibitor.

100/130 MIL Spec, low lead, aviation gasoline (BLUE)

Runway information:
16/34 - 8727 x 157 feet< - >2660 x 48 meters

Recent METARs:
EFVA 202220Z AUTO 36003KT 9999 FEW030/// BKN036/// M02/M02 Q1036
EFVA 202250Z AUTO 01003KT 320V030 9999 BKN034/// M02/M03 Q1036
EFVA 202320Z AUTO VRB02KT 9999 OVC035/// M02/M03 Q1036

Airport on the map: